Site contains unofficial IBTrACS data. Visit the IBTrACS Website to access archived data.

1899 NOT_NAMED (1899345S10069)


IBTrACS version v04r00. Visit IBTrACS website for data access.
Please direct all questions to the IBTrACS Q and A forum

Storm track - Intensity - Wind Radii - Intensity Data - Source Data - All data

Summary Information

Storm ID 1899345S10069
Start Dec 11 06Z
Landfall Dec 21 15Z
End Dec 26 06Z
ATCF IDs
Track status Best track data.

Storm track plot

Map of storm track

Intensity plots

No Intensity information for this storm


Radial wind information

No radial wind information for this storm


Position and Intensity Table

BASIN ISO_TIME_________ NATURE LAT LON
degrees north degrees east
SI 1899-12-11 06:00:00 NR -9.80 68.50
SI 09:00:00 NR -9.82 68.25
SI 12:00:00 NR -9.85 67.99
SI 15:00:00 NR -9.87 67.73
SI 18:00:00 NR -9.89 67.46
SI 21:00:00 NR -9.92 67.19
SI 1899-12-12 00:00:00 NR -9.94 66.90
SI 03:00:00 NR -9.97 66.61
SI 06:00:00 NR -10.00 66.30
SI 09:00:00 NR -10.03 65.98
SI 12:00:00 NR -10.06 65.64
SI 15:00:00 NR -10.10 65.29
SI 18:00:00 NR -10.14 64.94
SI 21:00:00 NR -10.17 64.58
SI 1899-12-13 00:00:00 NR -10.21 64.22
SI 03:00:00 NR -10.26 63.86
SI 06:00:00 NR -10.30 63.50
SI 09:00:00 NR -10.35 63.17
SI 12:00:00 NR -10.40 62.84
SI 15:00:00 NR -10.45 62.51
SI 18:00:00 NR -10.50 62.18
SI 21:00:00 NR -10.55 61.85
SI 1899-12-14 00:00:00 NR -10.60 61.51
SI 03:00:00 NR -10.65 61.16
SI 06:00:00 NR -10.70 60.80
SI 09:00:00 NR -10.74 60.44
SI 12:00:00 NR -10.77 60.07
SI 15:00:00 NR -10.81 59.69
SI 18:00:00 NR -10.84 59.30
SI 21:00:00 NR -10.88 58.89
SI 1899-12-15 00:00:00 NR -10.91 58.48
SI 03:00:00 NR -10.95 58.05
SI 06:00:00 NR -11.00 57.60
SI 09:00:00 NR -11.05 57.16
SI 12:00:00 NR -11.10 56.70
SI 15:00:00 NR -11.16 56.23
SI 18:00:00 NR -11.22 55.74
SI 21:00:00 NR -11.28 55.24
SI 1899-12-16 00:00:00 NR -11.35 54.71
SI 03:00:00 NR -11.42 54.17
SI 06:00:00 NR -11.50 53.60
SI 09:00:00 NR -11.58 52.99
SI 12:00:00 NR -11.67 52.35
SI 15:00:00 NR -11.75 51.69
SI 18:00:00 NR -11.84 51.03
SI 21:00:00 NR -11.94 50.37
SI 1899-12-17 00:00:00 NR -12.03 49.72
SI 03:00:00 NR -12.11 49.09
SI 06:00:00 NR -12.20 48.50
SI 09:00:00 NR -12.26 47.96
SI 12:00:00 NR -12.31 47.44
SI 15:00:00 NR -12.36 46.96
SI 18:00:00 NR -12.42 46.49
SI 21:00:00 NR -12.49 46.05
SI 1899-12-18 00:00:00 NR -12.57 45.62
SI 03:00:00 NR -12.67 45.20
SI 06:00:00 NR -12.80 44.80
SI 09:00:00 NR -12.93 44.36
SI 12:00:00 NR -13.08 43.93
SI 15:00:00 NR -13.26 43.51
SI 18:00:00 NR -13.46 43.11
SI 21:00:00 NR -13.68 42.74
SI 1899-12-19 00:00:00 NR -13.92 42.39
SI 03:00:00 NR -14.20 42.08
SI 06:00:00 NR -14.50 41.80
SI 09:00:00 NR -14.83 41.51
SI 12:00:00 NR -15.19 41.26
SI 15:00:00 NR -15.57 41.03
SI 18:00:00 NR -15.98 40.85
SI 21:00:00 NR -16.40 40.71
SI 1899-12-20 00:00:00 NR -16.83 40.62
SI 03:00:00 NR -17.27 40.58
SI 06:00:00 NR -17.70 40.60
SI 09:00:00 NR -18.12 40.65
SI 12:00:00 NR -18.55 40.76
SI 15:00:00 NR -18.98 40.92
SI 18:00:00 NR -19.40 41.13
SI 21:00:00 NR -19.82 41.37
SI 1899-12-21 00:00:00 NR -20.23 41.66
SI 03:00:00 NR -20.62 41.97
SI 06:00:00 NR -21.00 42.30
SI 09:00:00 NR -21.35 42.61
SI 12:00:00 NR -21.68 42.94
SI 15:00:00 NR -22.00 43.30
SI 18:00:00 NR -22.31 43.68
SI 21:00:00 NR -22.61 44.08
SI 1899-12-22 00:00:00 NR -22.91 44.51
SI 03:00:00 NR -23.20 44.95
SI 06:00:00 NR -23.50 45.40
SI 09:00:00 NR -23.82 45.87
SI 12:00:00 NR -24.15 46.35
SI 15:00:00 NR -24.47 46.85
SI 18:00:00 NR -24.79 47.36
SI 21:00:00 NR -25.10 47.88
SI 1899-12-23 00:00:00 NR -25.41 48.39
SI 03:00:00 NR -25.71 48.90
SI 06:00:00 NR -26.00 49.40
SI 09:00:00 NR -26.25 49.84
SI 12:00:00 NR -26.49 50.26
SI 15:00:00 NR -26.73 50.67
SI 18:00:00 NR -26.96 51.10
SI 21:00:00 NR -27.20 51.53
SI 1899-12-24 00:00:00 NR -27.45 51.98
SI 03:00:00 NR -27.71 52.47
SI 06:00:00 NR -28.00 53.00
SI 09:00:00 NR -28.37 53.68
SI 12:00:00 NR -28.77 54.41
SI 15:00:00 NR -29.17 55.18
SI 18:00:00 NR -29.57 55.95
SI 21:00:00 NR -29.96 56.70
SI 1899-12-25 00:00:00 NR -30.32 57.41
SI 03:00:00 NR -30.63 58.05
SI 06:00:00 NR -30.90 58.60
SI 09:00:00 NR -31.11 59.03
SI 12:00:00 NR -31.26 59.36
SI 15:00:00 NR -31.37 59.59
SI 18:00:00 NR -31.44 59.75
SI 21:00:00 NR -31.48 59.84
SI 1899-12-26 00:00:00 NR -31.50 59.89
SI 03:00:00 NR -31.50 59.90
SI 06:00:00 NR -31.50 59.90

Source Information

Agency Information
USA
TOKYO
CMA
HKO
NEWDELHI
REUNION WMO-Best-Tracks.txt:Line=1883:xxxx899273
BOM
NADI
WELLINGTON
DS824
TD9636
TD9635
NEUMANN
MLC

All available IBTrACS Data

SEASON BASIN SUBBASIN ISO_TIME_________ NATURE LAT LON WMO AGENCY DIST2LAND LANDFALL IFLAG USA SSHS REUNION LAT REUNION LON REUNION TYPE REUNION TNUM STORM SPEED STORM DIR
Year degrees north degrees east km km 1 degrees north degrees east 1 kts degrees
1900 SI MM 1899-12-11 06:00:00 NR -9.80 68.50 reunion 1634 1619 _____O________ -1 -9.80 68.50 99 9.90 5 265
1900 SI MM 09:00:00 NR -9.82 68.25 1611 1597 _____P________ -1 -9.82 68.25 99 5 265
1900 SI MM 12:00:00 NR -9.85 67.99 1597 1566 _____P________ -1 -9.85 67.99 99 5 265
1900 SI MM 15:00:00 NR -9.87 67.73 1566 1551 _____P________ -1 -9.87 67.73 99 5 265
1900 SI MM 18:00:00 NR -9.89 67.46 1551 1530 _____P________ -1 -9.89 67.46 99 5 265
1900 SI MM 21:00:00 NR -9.92 67.19 1530 1509 _____P________ -1 -9.92 67.19 99 6 265
1900 SI MM 1899-12-12 00:00:00 NR -9.94 66.90 1509 1479 _____P________ -1 -9.94 66.90 99 6 265
1900 SI MM 03:00:00 NR -9.97 66.61 1479 1459 _____P________ -1 -9.97 66.61 99 6 265
1900 SI MM 06:00:00 NR -10.00 66.30 reunion 1459 1438 _____O________ -1 -10.00 66.30 99 9.90 6 264
1900 SI MM 09:00:00 NR -10.03 65.98 1438 1410 _____P________ -1 -10.03 65.98 99 7 264
1900 SI MM 12:00:00 NR -10.06 65.64 1403 1384 _____P________ -1 -10.06 65.64 99 7 264
1900 SI MM 15:00:00 NR -10.10 65.29 1384 1365 _____P________ -1 -10.10 65.29 99 7 264
1900 SI MM 18:00:00 NR -10.14 64.94 1359 1332 _____P________ -1 -10.14 64.94 99 7 264
1900 SI MM 21:00:00 NR -10.17 64.58 1332 1309 _____P________ -1 -10.17 64.58 99 7 264
1900 SI MM 1899-12-13 00:00:00 NR -10.21 64.22 1309 1282 _____P________ -1 -10.21 64.22 99 7 263
1900 SI MM 03:00:00 NR -10.26 63.86 1282 1260 _____P________ -1 -10.26 63.86 99 7 263
1900 SI MM 06:00:00 NR -10.30 63.50 reunion 1260 1245 _____O________ -1 -10.30 63.50 99 9.90 7 262
1900 SI MM 09:00:00 NR -10.35 63.17 1245 1220 _____P________ -1 -10.35 63.17 99 7 262
1900 SI MM 12:00:00 NR -10.40 62.84 1215 1201 _____P________ -1 -10.40 62.84 99 7 261
1900 SI MM 15:00:00 NR -10.45 62.51 1201 1177 _____P________ -1 -10.45 62.51 99 7 261
1900 SI MM 18:00:00 NR -10.50 62.18 1177 1164 _____P________ -1 -10.50 62.18 99 7 261
1900 SI MM 21:00:00 NR -10.55 61.85 1150 1138 _____P________ -1 -10.55 61.85 99 7 261
1900 SI MM 1899-12-14 00:00:00 NR -10.60 61.51 1138 1127 _____P________ -1 -10.60 61.51 99 7 261
1900 SI MM 03:00:00 NR -10.65 61.16 1116 1103 _____P________ -1 -10.65 61.16 99 7 262
1900 SI MM 06:00:00 NR -10.70 60.80 reunion 1103 1094 _____O________ -1 -10.70 60.80 99 9.90 7 263
1900 SI MM 09:00:00 NR -10.74 60.44 1091 1072 _____P________ -1 -10.74 60.44 99 7 264
1900 SI MM 12:00:00 NR -10.77 60.07 1072 1062 _____P________ -1 -10.77 60.07 99 7 265
1900 SI MM 15:00:00 NR -10.81 59.69 1062 1052 _____P________ -1 -10.81 59.69 99 8 265
1900 SI MM 18:00:00 NR -10.84 59.30 1052 1007 _____P________ -1 -10.84 59.30 99 8 265
1900 SI MM 21:00:00 NR -10.88 58.89 1007 965 _____P________ -1 -10.88 58.89 99 8 265
1900 SI MM 1899-12-15 00:00:00 NR -10.91 58.48 965 920 _____P________ -1 -10.91 58.48 99 8 265
1900 SI MM 03:00:00 NR -10.95 58.05 909 867 _____P________ -1 -10.95 58.05 99 9 264
1900 SI MM 06:00:00 NR -11.00 57.60 reunion 867 825 _____O________ -1 -11.00 57.60 99 9.90 9 264
1900 SI MM 09:00:00 NR -11.05 57.16 825 769 _____P________ -1 -11.05 57.16 99 9 263
1900 SI MM 12:00:00 NR -11.10 56.70 769 724 _____P________ -1 -11.10 56.70 99 9 263
1900 SI MM 15:00:00 NR -11.16 56.23 714 672 _____P________ -1 -11.16 56.23 99 10 263
1900 SI MM 18:00:00 NR -11.22 55.74 662 617 _____P________ -1 -11.22 55.74 99 10 263
1900 SI MM 21:00:00 NR -11.28 55.24 607 555 _____P________ -1 -11.28 55.24 99 10 263
1900 SI MM 1899-12-16 00:00:00 NR -11.35 54.71 551 500 _____P________ -1 -11.35 54.71 99 11 262
1900 SI MM 03:00:00 NR -11.42 54.17 500 435 _____P________ -1 -11.42 54.17 99 11 262
1900 SI MM 06:00:00 NR -11.50 53.60 reunion 435 371 _____O________ -1 -11.50 53.60 99 9.90 12 262
1900 SI MM 09:00:00 NR -11.58 52.99 371 308 _____P________ -1 -11.58 52.99 99 12 262
1900 SI MM 12:00:00 NR -11.67 52.35 298 243 _____P________ -1 -11.67 52.35 99 13 262
1900 SI MM 15:00:00 NR -11.75 51.69 237 187 _____P________ -1 -11.75 51.69 99 13 262
1900 SI MM 18:00:00 NR -11.84 51.03 179 113 _____P________ -1 -11.84 51.03 99 13 262
1900 SI MM 21:00:00 NR -11.94 50.37 113 48 _____P________ -1 -11.94 50.37 99 13 262
1900 SI MM 1899-12-17 00:00:00 NR -12.03 49.72 39 0 _____P________ -1 -12.03 49.72 99 13 262
1900 SI MM 03:00:00 NR -12.11 49.09 10 10 _____P________ -1 -12.11 49.09 99 12 262
1900 SI MM 06:00:00 NR -12.20 48.50 reunion 46 46 _____O________ -1 -12.20 48.50 99 9.90 11 263
1900 SI MM 09:00:00 NR -12.26 47.96 89 89 _____P________ -1 -12.26 47.96 99 10 264
1900 SI MM 12:00:00 NR -12.31 47.44 153 153 _____P________ -1 -12.31 47.44 99 10 264
1900 SI MM 15:00:00 NR -12.36 46.96 172 172 _____P________ -1 -12.36 46.96 99 9 263
1900 SI MM 18:00:00 NR -12.42 46.49 210 210 _____P________ -1 -12.42 46.49 99 9 262
1900 SI MM 21:00:00 NR -12.49 46.05 245 245 _____P________ -1 -12.49 46.05 99 9 260
1900 SI MM 1899-12-18 00:00:00 NR -12.57 45.62 277 277 _____P________ -1 -12.57 45.62 99 8 257
1900 SI MM 03:00:00 NR -12.67 45.20 313 313 _____P________ -1 -12.67 45.20 99 8 254
1900 SI MM 06:00:00 NR -12.80 44.80 reunion 349 349 _____O________ -1 -12.80 44.80 99 9.90 9 253
1900 SI MM 09:00:00 NR -12.93 44.36 355 345 _____P________ -1 -12.93 44.36 99 9 251
1900 SI MM 12:00:00 NR -13.08 43.93 349 314 _____P________ -1 -13.08 43.93 99 9 248
1900 SI MM 15:00:00 NR -13.26 43.51 314 270 _____P________ -1 -13.26 43.51 99 9 245
1900 SI MM 18:00:00 NR -13.46 43.11 270 233 _____P________ -1 -13.46 43.11 99 9 241
1900 SI MM 21:00:00 NR -13.68 42.74 223 185 _____P________ -1 -13.68 42.74 99 8 236
1900 SI MM 1899-12-19 00:00:00 NR -13.92 42.39 185 144 _____P________ -1 -13.92 42.39 99 8 231
1900 SI MM 03:00:00 NR -14.20 42.08 144 107 _____P________ -1 -14.20 42.08 99 8 225
1900 SI MM 06:00:00 NR -14.50 41.80 reunion 107 75 _____O________ -1 -14.50 41.80 99 9.90 8 221
1900 SI MM 09:00:00 NR -14.83 41.51 75 54 _____P________ -1 -14.83 41.51 99 9 217
1900 SI MM 12:00:00 NR -15.19 41.26 58 48 _____P________ -1 -15.19 41.26 99 9 212
1900 SI MM 15:00:00 NR -15.57 41.03 48 48 _____P________ -1 -15.57 41.03 99 9 206
1900 SI MM 18:00:00 NR -15.98 40.85 63 54 _____P________ -1 -15.98 40.85 99 9 200
1900 SI MM 21:00:00 NR -16.40 40.71 77 77 _____P________ -1 -16.40 40.71 99 9 194
1900 SI MM 1899-12-20 00:00:00 NR -16.83 40.62 91 91 _____P________ -1 -16.83 40.62 99 9 188
1900 SI MM 03:00:00 NR -17.27 40.58 123 123 _____P________ -1 -17.27 40.58 99 9 182
1900 SI MM 06:00:00 NR -17.70 40.60 reunion 158 158 _____O________ -1 -17.70 40.60 99 9.90 9 175
1900 SI MM 09:00:00 NR -18.12 40.65 198 198 _____P________ -1 -18.12 40.65 99 9 170
1900 SI MM 12:00:00 NR -18.55 40.76 246 246 _____P________ -1 -18.55 40.76 99 9 163
1900 SI MM 15:00:00 NR -18.98 40.92 293 293 _____P________ -1 -18.98 40.92 99 9 158
1900 SI MM 18:00:00 NR -19.40 41.13 324 282 _____P________ -1 -19.40 41.13 99 10 153
1900 SI MM 21:00:00 NR -19.82 41.37 282 238 _____P________ -1 -19.82 41.37 99 10 149
1900 SI MM 1899-12-21 00:00:00 NR -20.23 41.66 230 188 _____P________ -1 -20.23 41.66 99 10 145
1900 SI MM 03:00:00 NR -20.62 41.97 179 132 _____P________ -1 -20.62 41.97 99 10 142
1900 SI MM 06:00:00 NR -21.00 42.30 reunion 132 93 _____O________ -1 -21.00 42.30 99 9.90 9 141
1900 SI MM 09:00:00 NR -21.35 42.61 93 52 _____P________ -1 -21.35 42.61 99 9 139
1900 SI MM 12:00:00 NR -21.68 42.94 52 0 _____P________ -1 -21.68 42.94 99 9 135
1900 SI MM 15:00:00 NR -22.00 43.30 0 0 _____P________ -1 -22.00 43.30 99 9 132
1900 SI MM 18:00:00 NR -22.31 43.68 0 0 _____P________ -1 -22.31 43.68 99 10 130
1900 SI MM 21:00:00 NR -22.61 44.08 0 0 _____P________ -1 -22.61 44.08 99 10 128
1900 SI MM 1899-12-22 00:00:00 NR -22.91 44.51 0 0 _____P________ -1 -22.91 44.51 99 10 127
1900 SI MM 03:00:00 NR -23.20 44.95 0 0 _____P________ -1 -23.20 44.95 99 10 126
1900 SI MM 06:00:00 NR -23.50 45.40 reunion 0 0 _____O________ -1 -23.50 45.40 99 9.90 10 126
1900 SI MM 09:00:00 NR -23.82 45.87 0 0 _____P________ -1 -23.82 45.87 99 11 127
1900 SI MM 12:00:00 NR -24.15 46.35 0 0 _____P________ -1 -24.15 46.35 99 11 126
1900 SI MM 15:00:00 NR -24.47 46.85 0 0 _____P________ -1 -24.47 46.85 99 11 125
1900 SI MM 18:00:00 NR -24.79 47.36 23 23 _____P________ -1 -24.79 47.36 99 11 124
1900 SI MM 21:00:00 NR -25.10 47.88 81 81 _____P________ -1 -25.10 47.88 99 11 124
1900 SI MM 1899-12-23 00:00:00 NR -25.41 48.39 138 138 _____P________ -1 -25.41 48.39 99 11 123
1900 SI MM 03:00:00 NR -25.71 48.90 196 196 _____P________ -1 -25.71 48.90 99 11 123
1900 SI MM 06:00:00 NR -26.00 49.40 reunion 256 256 _____O________ -1 -26.00 49.40 99 9.90 10 123
1900 SI MM 09:00:00 NR -26.25 49.84 306 306 _____P________ -1 -26.25 49.84 99 9 123
1900 SI MM 12:00:00 NR -26.49 50.26 361 361 _____P________ -1 -26.49 50.26 99 9 122
1900 SI MM 15:00:00 NR -26.73 50.67 406 406 _____P________ -1 -26.73 50.67 99 9 122
1900 SI MM 18:00:00 NR -26.96 51.10 457 457 _____P________ -1 -26.96 51.10 99 9 122
1900 SI MM 21:00:00 NR -27.20 51.53 503 503 _____P________ -1 -27.20 51.53 99 9 122
1900 SI MM 1899-12-24 00:00:00 NR -27.45 51.98 557 557 _____P________ -1 -27.45 51.98 99 10 122
1900 SI MM 03:00:00 NR -27.71 52.47 616 616 _____P________ -1 -27.71 52.47 99 11 122
1900 SI MM 06:00:00 NR -28.00 53.00 reunion 675 675 _____O________ -1 -28.00 53.00 99 9.90 13 122
1900 SI MM 09:00:00 NR -28.37 53.68 756 756 _____P________ -1 -28.37 53.68 99 15 122
1900 SI MM 12:00:00 NR -28.77 54.41 835 834 _____P________ -1 -28.77 54.41 99 15 121
1900 SI MM 15:00:00 NR -29.17 55.18 872 871 _____P________ -1 -29.17 55.18 99 16 121
1900 SI MM 18:00:00 NR -29.57 55.95 916 916 _____P________ -1 -29.57 55.95 99 15 121
1900 SI MM 21:00:00 NR -29.96 56.70 966 966 _____P________ -1 -29.96 56.70 99 15 120
1900 SI MM 1899-12-25 00:00:00 NR -30.32 57.41 1010 1010 _____P________ -1 -30.32 57.41 99 13 120
1900 SI MM 03:00:00 NR -30.63 58.05 1057 1057 _____P________ -1 -30.63 58.05 99 12 120
1900 SI MM 06:00:00 NR -30.90 58.60 reunion 1102 1102 _____O________ -1 -30.90 58.60 99 9.90 10 119
1900 SI MM 09:00:00 NR -31.11 59.03 1134 1134 _____P________ -1 -31.11 59.03 99 7 119
1900 SI MM 12:00:00 NR -31.26 59.36 1168 1168 _____P________ -1 -31.26 59.36 99 5 119
1900 SI MM 15:00:00 NR -31.37 59.59 1185 1185 _____P________ -1 -31.37 59.59 99 4 118
1900 SI MM 18:00:00 NR -31.44 59.75 1188 1188 _____P________ -1 -31.44 59.75 99 2 118
1900 SI MM 21:00:00 NR -31.48 59.84 1202 1202 _____P________ -1 -31.48 59.84 99 1 117
1900 SI MM 1899-12-26 00:00:00 NR -31.50 59.89 1206 1206 _____P________ -1 -31.50 59.89 99 1 114
1900 SI MM 03:00:00 NR -31.50 59.90 1206 1206 _____P________ -1 -31.50 59.90 99 0 0
1900 SI MM 06:00:00 NR -31.50 59.90 reunion 1206 _____O________ -1 -31.50 59.90 99 9.90 0 0